Карточка аэропорта UUYY

Внимание!
Информация на этой странице в стадии наполнения.
Если вы не увидели какой-то информации, или заметили неточность - пожалуйста сообщите нам!
Спасибо!
Команда RU-STAFF
Название аэропортаСыктывкар
Название аэропорта (англ.)Syktyvkar
Превышение339 ft. (103.3 m.)
Координаты61°38.502', 50°50.298'
Высота перехода3000 feet
Эшелон переходаQNH>=1013hPa:FL040; QNH<1013hPa:FL050; QNH<977hPa:FL060
Коды ответчика3130-3134, 5752-5757, 5770-5777, 6701-6717
Зона ОрВДСанкт-Петербург РПИ (ULLL)
Данные METARUUYY 150900Z 32002MPS 280V030 9999 SCT009 BKN018CB 14/13 Q1010 R36/29//51 NOSIG RMK QFE749/0998
Проноз погоды (TAF)UUYY 150800Z 1509/1609 32003G12MPS 9999 BKN011 BKN017CB TEMPO 1509/1512 34003G14MPS 6000 -TSRA BKN007 BKN016CB FM151200 32003G12MPS 9999 FEW011 BKN017CB TEMPO 1512/1515 6000 -TSRA FEW007 BKN016CB BECMG 1518/1520 35003G09MPS
NOTAMshow/hide NOTAM
AWOS   TABLE

Информация о ВПП

ВПП Длина ВПП (м.) Покрытие Курс ВПП Частота ILS
012500Асфальтобетон6108.3
192500Асфальтобетон186111.7

Диспетчерские позиции

Позывной Наименование органа УВД Частота
UUYY_R_APPСивкар-Круг124.600
UUYY_TWRСивкар-Старт124.600



Спутниковое изображение